Deltaville, Virginia
Current Conditions -  °F | °C
As of 3:15 PM on Thursday 23 Oct 2014 (Local Time) from KW75 Reporting Station
Clear Clear  
Wind Chill: 64°   Ceiling: Unl
Heat Index: 64°   Visibility: 10mi
Dew Point: 47°   Wind: 12mph
Humidity: 56%   Direction: 310°NW
Pressure: 29.83"   Gusts: 25mph
Location:  37.56°N, 76.34°W
Report Text: KW75 231915Z AUTO 31010G22KT 280V350 10SM CLR 18/09 A2983 RMK AO1 T01750085
Loading
Personal Weather Stations






























Interactive Weather Map
Tropical Storm Tracking
New forecast layout! Learn more

10-Day Weather Forecast

Advertisements
Track Severe Weather on mobile